createdAt,value
2023-03-18T12:16:37.536Z,3280.00
2023-03-18T12:18:37.889Z,4276.00
2023-03-18T12:20:38.196Z,4192.00
2023-03-18T12:22:38.480Z,4700.00
2023-03-18T12:24:38.778Z,4428.00
2023-03-18T12:26:39.101Z,5024.00
2023-03-18T12:28:39.683Z,5224.00
2023-03-18T12:30:39.994Z,4976.00
2023-03-18T12:32:40.354Z,4520.00
2023-03-18T12:34:40.634Z,4580.00
2023-03-18T12:36:40.954Z,4636.00
2023-03-18T12:38:41.288Z,5020.00
2023-03-18T12:40:41.570Z,4812.00
2023-03-18T12:42:41.905Z,5064.00
2023-03-18T12:44:42.163Z,5040.00
2023-03-18T12:46:42.521Z,5284.00
2023-03-18T12:48:44.639Z,5368.00
2023-03-18T12:50:46.018Z,5360.00
2023-03-18T12:52:46.264Z,5472.00
2023-03-18T12:54:46.563Z,6016.00
2023-03-18T12:56:47.603Z,6296.00
2023-03-18T12:58:48.592Z,6916.00
2023-03-18T13:00:49.148Z,6556.00
2023-03-18T13:02:50.012Z,6652.00
2023-03-18T13:04:50.892Z,5960.00
2023-03-18T13:06:51.450Z,5616.00
2023-03-18T13:08:52.114Z,5548.00
2023-03-18T13:10:52.383Z,5600.00
2023-03-18T13:12:52.659Z,6468.00
2023-03-18T13:14:52.955Z,6084.00
2023-03-18T13:16:53.401Z,6256.00
2023-03-18T13:18:54.085Z,6664.00
2023-03-18T13:20:54.539Z,6512.00
2023-03-18T13:22:55.025Z,2616.00
2023-03-18T13:24:55.399Z,2496.00
2023-03-18T13:26:55.800Z,3148.00
2023-03-18T13:28:56.161Z,3832.00
2023-03-18T13:30:56.497Z,3524.00
2023-03-18T13:32:56.937Z,3576.00
2023-03-18T13:34:57.365Z,3376.00
2023-03-18T13:36:57.728Z,2712.00
2023-03-18T13:38:58.075Z,3332.00
2023-03-18T13:40:58.390Z,3828.00
2023-03-18T13:42:58.669Z,3676.00
2023-03-18T13:44:59.138Z,4072.00
2023-03-18T13:46:59.428Z,4124.00
2023-03-18T13:49:41.344Z,1948.00
2023-03-18T13:51:41.674Z,2640.00
2023-03-18T13:53:42.026Z,3120.00
2023-03-18T13:55:42.262Z,2348.00
2023-03-18T13:57:42.581Z,3104.00
2023-03-18T13:59:42.882Z,2208.00
2023-03-18T14:01:43.219Z,1540.00
2023-03-18T14:03:43.610Z,1260.00
2023-03-18T14:05:43.939Z,1404.00
2023-03-18T14:07:44.227Z,1204.00
2023-03-18T14:09:44.521Z,1268.00
2023-03-18T14:11:45.350Z,1212.00
2023-03-18T14:13:45.728Z,1364.00
2023-03-18T14:15:46.071Z,1332.00
2023-03-18T14:17:46.345Z,1484.00
2023-03-18T14:19:46.660Z,1532.00
2023-03-18T14:21:46.960Z,1636.00
2023-03-18T14:23:47.234Z,1652.00
2023-03-18T14:25:47.523Z,1960.00
2023-03-18T14:27:47.815Z,1872.00
2023-03-18T14:29:48.101Z,1668.00
2023-03-18T14:31:48.400Z,2912.00
2023-03-18T14:33:48.735Z,1896.00
2023-03-18T14:35:49.076Z,3256.00
2023-03-18T14:37:49.403Z,3240.00
2023-03-18T14:39:49.709Z,2864.00
2023-03-18T14:41:50.050Z,3912.00
2023-03-18T14:43:50.555Z,3892.00
2023-03-18T14:45:50.907Z,3288.00
2023-03-18T14:47:51.217Z,1768.00
2023-03-18T14:49:51.479Z,1996.00
2023-03-18T14:51:51.790Z,2160.00
2023-03-18T14:53:52.129Z,1324.00
2023-03-18T14:55:52.783Z,1956.00
2023-03-18T14:57:53.583Z,1436.00
2023-03-18T14:59:53.891Z,1200.00
2023-03-18T15:01:54.249Z,2432.00
2023-03-18T15:03:54.505Z,3544.00
2023-03-18T15:05:54.804Z,1456.00
2023-03-18T15:07:55.150Z,1280.00
2023-03-18T15:09:55.432Z,1084.00
2023-03-18T15:11:55.737Z,1124.00
2023-03-18T15:13:57.303Z,1064.00
2023-03-18T15:15:59.140Z,1256.00
2023-03-18T15:17:59.422Z,1124.00
2023-03-18T15:20:00.162Z,1608.00
2023-03-18T15:22:00.429Z,1192.00
2023-03-18T15:24:01.450Z,1344.00
2023-03-18T15:26:01.732Z,1944.00
2023-03-18T15:28:02.037Z,1632.00
2023-03-18T15:30:02.329Z,2728.00
2023-03-18T15:32:02.646Z,2568.00
2023-03-18T15:34:07.809Z,2392.00
2023-03-18T15:36:08.206Z,1352.00
2023-03-18T15:38:08.518Z,1284.00
2023-03-18T15:40:08.899Z,908.00
2023-03-18T15:42:09.211Z,900.00
2023-03-18T15:44:09.577Z,728.00
2023-03-18T15:46:09.929Z,732.00
2023-03-18T15:48:10.261Z,728.00
2023-03-18T15:50:10.543Z,680.00
2023-03-18T15:52:10.892Z,908.00
2023-03-18T15:54:11.121Z,2304.00
2023-03-18T15:56:11.470Z,2424.00
2023-03-18T15:58:11.795Z,2852.00
2023-03-18T16:00:12.074Z,2520.00
2023-03-18T16:02:12.384Z,2436.00
2023-03-18T16:04:12.642Z,2708.00
2023-03-18T16:06:12.964Z,2552.00
2023-03-18T16:08:13.366Z,2560.00
2023-03-18T16:10:13.727Z,2484.00
2023-03-18T16:12:14.090Z,2380.00
2023-03-18T16:14:14.356Z,2380.00
2023-03-18T16:16:14.733Z,2164.00
2023-03-18T16:18:15.061Z,1712.00
2023-03-18T16:20:15.436Z,1388.00
2023-03-18T16:22:15.771Z,1068.00
2023-03-18T16:24:16.106Z,988.00
2023-03-18T16:26:16.417Z,948.00
2023-03-18T16:28:16.833Z,932.00
2023-03-18T16:30:17.289Z,988.00
2023-03-18T16:32:17.585Z,972.00
2023-03-18T16:34:18.913Z,1092.00
2023-03-18T16:36:20.802Z,1124.00
2023-03-18T16:38:21.202Z,1100.00
2023-03-18T16:40:21.554Z,1136.00
2023-03-18T16:42:21.817Z,1016.00
2023-03-18T16:44:22.141Z,1028.00
2023-03-18T16:46:22.664Z,1084.00
2023-03-18T16:48:23.072Z,1020.00
2023-03-18T16:50:23.452Z,1016.00
2023-03-18T16:52:23.872Z,1008.00
2023-03-18T16:54:24.243Z,1020.00
2023-03-18T16:56:24.554Z,1000.00
2023-03-18T16:58:24.799Z,988.00
2023-03-18T17:00:25.139Z,936.00
2023-03-18T17:02:25.463Z,936.00
2023-03-18T17:04:25.895Z,800.00
2023-03-18T17:06:26.226Z,724.00
2023-03-18T17:08:26.574Z,604.00
2023-03-18T17:10:26.841Z,472.00
2023-03-18T17:12:27.133Z,460.00
2023-03-18T17:14:27.467Z,408.00
2023-03-18T17:16:27.783Z,364.00
2023-03-18T17:18:28.138Z,340.00
2023-03-18T17:20:28.448Z,292.00
2023-03-18T17:22:28.723Z,260.00
2023-03-18T17:24:28.992Z,216.00
2023-03-18T17:26:29.292Z,184.00
2023-03-18T17:28:29.598Z,192.00
2023-03-18T17:30:29.922Z,156.00
2023-03-18T17:32:30.301Z,124.00
2023-03-18T17:34:30.555Z,80.00
2023-03-18T17:36:30.896Z,64.00
2023-03-18T17:38:31.243Z,48.00
2023-03-18T17:40:31.646Z,40.00
2023-03-18T17:42:32.014Z,28.00
2023-03-18T17:44:32.403Z,24.00
2023-03-18T17:46:32.771Z,20.00
2023-03-18T17:48:33.039Z,12.00
2023-03-18T17:50:33.344Z,8.00
2023-03-18T17:52:33.670Z,8.00
2023-03-18T17:54:33.964Z,8.00
2023-03-18T17:56:34.260Z,4.00
2023-03-18T17:58:34.540Z,4.00
2023-03-18T18:00:34.874Z,0.00
2023-03-18T18:02:35.221Z,4.00
2023-03-18T18:04:35.550Z,0.00
2023-03-18T18:06:35.891Z,0.00
2023-03-18T18:08:36.193Z,0.00
2023-03-18T18:10:36.474Z,0.00
2023-03-18T18:12:36.772Z,0.00
2023-03-18T18:14:37.083Z,0.00
2023-03-18T18:16:37.425Z,0.00
2023-03-18T18:18:37.697Z,0.00
2023-03-18T18:20:38.079Z,0.00
2023-03-18T18:22:38.415Z,0.00
2023-03-18T18:24:38.661Z,0.00
2023-03-18T18:26:39.115Z,0.00
2023-03-18T18:28:39.617Z,0.00
2023-03-18T18:30:39.991Z,0.00
2023-03-18T18:32:40.304Z,0.00
2023-03-18T18:34:40.580Z,0.00
2023-03-18T18:36:40.861Z,0.00
2023-03-18T18:38:41.233Z,0.00
2023-03-18T18:40:41.519Z,0.00
2023-03-18T18:42:42.091Z,0.00
2023-03-18T18:44:42.344Z,0.00
2023-03-18T18:46:42.826Z,0.00
2023-03-18T18:48:43.138Z,0.00
2023-03-18T18:50:43.425Z,0.00
2023-03-18T18:52:43.735Z,0.00
2023-03-18T18:54:44.067Z,0.00
2023-03-18T18:56:44.394Z,0.00
2023-03-18T18:58:44.690Z,0.00
2023-03-18T19:00:45.069Z,0.00
2023-03-18T19:02:45.397Z,0.00
2023-03-18T19:04:45.680Z,0.00
2023-03-18T19:06:46.161Z,0.00
2023-03-18T19:08:46.517Z,0.00
2023-03-18T19:10:46.838Z,0.00
2023-03-18T19:12:47.141Z,0.00
2023-03-18T19:14:47.959Z,0.00
2023-03-18T19:16:48.282Z,0.00
2023-03-18T19:18:48.596Z,0.00
2023-03-18T19:20:48.896Z,0.00
2023-03-18T19:22:49.175Z,0.00
2023-03-18T19:24:49.495Z,0.00
2023-03-18T19:26:49.781Z,0.00
2023-03-18T19:29:00.218Z,0.00
2023-03-18T19:30:55.318Z,0.00
2023-03-18T19:32:55.696Z,0.00
2023-03-18T19:34:56.036Z,0.00
2023-03-18T19:36:56.385Z,0.00
2023-03-18T19:38:56.648Z,0.00
2023-03-18T19:40:56.941Z,0.00
2023-03-18T19:42:57.279Z,0.00
2023-03-18T19:44:57.544Z,0.00
2023-03-18T19:46:57.835Z,0.00
2023-03-18T19:48:58.158Z,0.00
2023-03-18T19:50:58.487Z,0.00
2023-03-18T19:52:59.089Z,0.00
2023-03-18T19:54:59.448Z,0.00
2023-03-18T19:56:59.882Z,0.00
2023-03-18T19:59:00.263Z,0.00
2023-03-18T20:01:00.648Z,0.00
2023-03-18T20:03:01.009Z,0.00
2023-03-18T20:05:01.271Z,0.00
2023-03-18T20:07:01.646Z,0.00
2023-03-18T20:09:01.964Z,0.00
2023-03-18T20:11:02.260Z,0.00
2023-03-18T20:13:02.590Z,0.00
2023-03-18T20:15:02.890Z,0.00
2023-03-18T20:17:03.177Z,0.00
2023-03-18T20:19:03.655Z,0.00
2023-03-18T20:21:04.009Z,0.00
2023-03-18T20:23:04.296Z,0.00
2023-03-18T20:25:04.627Z,0.00
2023-03-18T20:27:04.929Z,0.00
2023-03-18T20:29:05.244Z,0.00
2023-03-18T20:31:05.578Z,0.00
2023-03-18T20:33:06.044Z,0.00
2023-03-18T20:35:06.342Z,0.00
2023-03-18T20:37:06.664Z,0.00
2023-03-18T20:39:06.957Z,0.00
2023-03-18T20:41:07.296Z,0.00
2023-03-18T20:43:07.565Z,0.00
2023-03-18T20:45:07.947Z,0.00
2023-03-18T20:47:08.181Z,0.00
2023-03-18T20:49:08.522Z,0.00
2023-03-18T20:51:08.827Z,0.00
2023-03-18T20:53:09.122Z,0.00
2023-03-18T20:55:09.439Z,0.00
2023-03-18T20:57:09.733Z,0.00
2023-03-18T20:59:10.060Z,0.00
2023-03-18T21:01:10.395Z,0.00
2023-03-18T21:03:10.666Z,0.00
2023-03-18T21:05:11.004Z,0.00
2023-03-18T21:07:11.371Z,0.00
2023-03-18T21:09:11.614Z,0.00
2023-03-18T21:11:11.886Z,0.00
2023-03-18T21:13:12.220Z,0.00
2023-03-18T21:15:12.526Z,0.00
2023-03-18T21:17:12.897Z,0.00
2023-03-18T21:19:13.170Z,0.00
2023-03-18T21:21:13.462Z,0.00
2023-03-18T21:23:13.824Z,0.00
2023-03-18T21:25:14.049Z,0.00
2023-03-18T21:27:14.371Z,0.00
2023-03-18T21:29:14.660Z,0.00
2023-03-18T21:31:15.019Z,0.00
2023-03-18T21:33:15.332Z,0.00
2023-03-18T21:35:15.625Z,0.00
2023-03-18T21:37:15.915Z,0.00
2023-03-18T21:39:16.404Z,0.00
2023-03-18T21:41:16.684Z,0.00
2023-03-18T21:43:17.032Z,0.00
2023-03-18T21:45:17.355Z,0.00
2023-03-18T21:47:17.683Z,0.00
2023-03-18T21:49:17.962Z,0.00
2023-03-18T21:51:35.191Z,0.00
2023-03-18T21:53:23.483Z,0.00
2023-03-18T21:55:23.765Z,0.00
2023-03-18T21:57:24.103Z,0.00
2023-03-18T21:59:24.418Z,0.00
2023-03-18T22:01:24.727Z,0.00
2023-03-18T22:03:25.006Z,0.00
2023-03-18T22:05:25.301Z,0.00
2023-03-18T22:07:25.624Z,0.00
2023-03-18T22:09:25.911Z,0.00
2023-03-18T22:11:26.244Z,0.00
2023-03-18T22:13:26.511Z,0.00
2023-03-18T22:15:26.830Z,0.00
2023-03-18T22:17:27.179Z,0.00
2023-03-18T22:19:27.428Z,0.00
2023-03-18T22:21:27.768Z,0.00
2023-03-18T22:23:28.014Z,0.00
2023-03-18T22:25:28.311Z,0.00
2023-03-18T22:27:28.634Z,0.00
2023-03-18T22:29:28.934Z,0.00
2023-03-18T22:31:29.348Z,0.00
2023-03-18T22:33:29.648Z,0.00
2023-03-18T22:35:29.967Z,0.00
2023-03-18T22:37:30.317Z,0.00
2023-03-18T22:39:30.639Z,0.00
2023-03-18T22:41:30.928Z,0.00
2023-03-18T22:43:31.248Z,0.00
2023-03-18T22:45:31.816Z,0.00
2023-03-18T22:47:32.355Z,0.00
2023-03-18T22:49:32.709Z,0.00
2023-03-18T22:51:32.973Z,0.00
2023-03-18T22:53:33.294Z,0.00
2023-03-18T22:55:33.898Z,0.00
2023-03-18T22:57:34.358Z,0.00
2023-03-18T22:59:34.682Z,0.00
2023-03-18T23:01:35.029Z,0.00
2023-03-18T23:03:35.297Z,0.00
2023-03-18T23:05:35.779Z,0.00
2023-03-18T23:07:36.095Z,0.00
2023-03-18T23:09:44.203Z,0.00
2023-03-18T23:11:41.616Z,0.00
2023-03-18T23:13:41.959Z,0.00
2023-03-18T23:15:42.285Z,0.00
2023-03-18T23:17:42.585Z,0.00
2023-03-18T23:19:42.871Z,0.00
2023-03-18T23:21:43.140Z,0.00
2023-03-18T23:23:43.516Z,0.00
2023-03-18T23:25:43.805Z,0.00
2023-03-18T23:27:44.216Z,0.00
2023-03-18T23:29:44.502Z,0.00
2023-03-18T23:31:44.887Z,0.00
2023-03-18T23:33:45.186Z,0.00
2023-03-18T23:35:45.563Z,0.00
2023-03-18T23:37:45.904Z,0.00
2023-03-18T23:39:46.504Z,0.00
2023-03-18T23:41:47.310Z,0.00
2023-03-18T23:43:47.587Z,0.00
2023-03-18T23:45:48.177Z,0.00
2023-03-18T23:47:48.557Z,0.00
2023-03-18T23:49:48.835Z,0.00
2023-03-18T23:51:49.135Z,0.00
2023-03-18T23:53:49.484Z,0.00
2023-03-18T23:55:50.210Z,0.00
2023-03-18T23:57:50.599Z,0.00
2023-03-18T23:59:50.936Z,0.00
